sensor_id;sensor_type;location;lat;lon;timestamp;P1;durP1;ratioP1;P2;durP2;ratioP2
679;SDS011;322;48.846;9.230;2022-09-09T00:00:49;4.57;;;3.70;;
679;SDS011;322;48.846;9.230;2022-09-09T00:03:23;3.43;;;2.60;;
679;SDS011;322;48.846;9.230;2022-09-09T00:05:54;7.00;;;3.10;;
679;SDS011;322;48.846;9.230;2022-09-09T00:08:32;5.70;;;3.23;;
679;SDS011;322;48.846;9.230;2022-09-09T00:11:10;6.07;;;3.30;;
679;SDS011;322;48.846;9.230;2022-09-09T00:13:42;5.13;;;4.00;;
679;SDS011;322;48.846;9.230;2022-09-09T00:16:15;8.37;;;3.43;;
679;SDS011;322;48.846;9.230;2022-09-09T00:18:47;8.90;;;4.27;;
679;SDS011;322;48.846;9.230;2022-09-09T00:21:21;4.60;;;3.83;;
679;SDS011;322;48.846;9.230;2022-09-09T00:23:53;6.73;;;4.10;;
679;SDS011;322;48.846;9.230;2022-09-09T00:26:22;5.63;;;4.03;;
679;SDS011;322;48.846;9.230;2022-09-09T00:28:59;4.10;;;3.10;;
679;SDS011;322;48.846;9.230;2022-09-09T00:31:31;8.47;;;4.17;;
679;SDS011;322;48.846;9.230;2022-09-09T00:33:58;6.90;;;3.83;;
679;SDS011;322;48.846;9.230;2022-09-09T00:36:31;6.50;;;3.40;;
679;SDS011;322;48.846;9.230;2022-09-09T00:39:01;5.70;;;3.60;;
679;SDS011;322;48.846;9.230;2022-09-09T00:41:30;5.27;;;3.27;;
679;SDS011;322;48.846;9.230;2022-09-09T00:44:11;5.57;;;3.73;;
679;SDS011;322;48.846;9.230;2022-09-09T00:46:54;7.97;;;3.87;;
679;SDS011;322;48.846;9.230;2022-09-09T00:49:34;4.80;;;3.33;;
679;SDS011;322;48.846;9.230;2022-09-09T00:52:15;4.53;;;3.07;;
679;SDS011;322;48.846;9.230;2022-09-09T00:54:54;6.90;;;3.10;;
679;SDS011;322;48.846;9.230;2022-09-09T00:57:29;4.10;;;2.83;;
679;SDS011;322;48.846;9.230;2022-09-09T01:00:00;4.57;;;2.90;;
679;SDS011;322;48.846;9.230;2022-09-09T01:02:45;5.30;;;3.03;;
679;SDS011;322;48.846;9.230;2022-09-09T01:05:36;6.10;;;2.90;;
679;SDS011;322;48.846;9.230;2022-09-09T01:08:12;3.40;;;2.47;;
679;SDS011;322;48.846;9.230;2022-09-09T01:10:53;5.60;;;2.80;;
679;SDS011;322;48.846;9.230;2022-09-09T01:13:22;7.67;;;2.90;;
679;SDS011;322;48.846;9.230;2022-09-09T01:15:52;4.63;;;3.17;;
679;SDS011;322;48.846;9.230;2022-09-09T01:18:21;4.13;;;3.13;;
679;SDS011;322;48.846;9.230;2022-09-09T01:20:54;6.00;;;2.80;;
679;SDS011;322;48.846;9.230;2022-09-09T01:23:30;4.00;;;3.00;;
679;SDS011;322;48.846;9.230;2022-09-09T01:26:20;5.57;;;2.67;;
679;SDS011;322;48.846;9.230;2022-09-09T01:28:51;3.07;;;2.60;;
679;SDS011;322;48.846;9.230;2022-09-09T01:31:19;6.20;;;2.67;;
679;SDS011;322;48.846;9.230;2022-09-09T01:33:48;6.47;;;2.73;;
679;SDS011;322;48.846;9.230;2022-09-09T01:36:18;5.43;;;2.50;;
679;SDS011;322;48.846;9.230;2022-09-09T01:38:51;3.80;;;2.20;;
679;SDS011;322;48.846;9.230;2022-09-09T01:41:18;4.50;;;2.27;;
679;SDS011;322;48.846;9.230;2022-09-09T01:43:46;7.20;;;2.47;;
679;SDS011;322;48.846;9.230;2022-09-09T01:46:13;3.60;;;2.50;;
679;SDS011;322;48.846;9.230;2022-09-09T01:48:42;3.90;;;2.67;;
679;SDS011;322;48.846;9.230;2022-09-09T01:51:09;7.30;;;2.37;;
679;SDS011;322;48.846;9.230;2022-09-09T01:56:45;5.90;;;2.43;;
679;SDS011;322;48.846;9.230;2022-09-09T01:59:27;5.67;;;2.57;;
679;SDS011;322;48.846;9.230;2022-09-09T02:02:07;5.03;;;2.60;;
679;SDS011;322;48.846;9.230;2022-09-09T02:04:45;3.57;;;2.10;;
679;SDS011;322;48.846;9.230;2022-09-09T02:07:21;3.77;;;2.20;;
679;SDS011;322;48.846;9.230;2022-09-09T02:09:57;4.67;;;2.77;;
679;SDS011;322;48.846;9.230;2022-09-09T02:12:27;3.50;;;2.80;;
679;SDS011;322;48.846;9.230;2022-09-09T02:14:58;3.90;;;2.50;;
679;SDS011;322;48.846;9.230;2022-09-09T02:17:30;4.43;;;2.40;;
679;SDS011;322;48.846;9.230;2022-09-09T02:20:05;5.27;;;2.77;;
679;SDS011;322;48.846;9.230;2022-09-09T02:22:34;6.23;;;2.73;;
679;SDS011;322;48.846;9.230;2022-09-09T02:25:05;3.27;;;2.30;;
679;SDS011;322;48.846;9.230;2022-09-09T02:27:44;3.60;;;2.40;;
679;SDS011;322;48.846;9.230;2022-09-09T02:30:14;4.07;;;2.70;;
679;SDS011;322;48.846;9.230;2022-09-09T02:32:42;4.90;;;2.57;;
679;SDS011;322;48.846;9.230;2022-09-09T02:35:12;7.17;;;2.60;;
679;SDS011;322;48.846;9.230;2022-09-09T02:37:40;4.37;;;2.30;;
679;SDS011;322;48.846;9.230;2022-09-09T02:40:09;4.33;;;2.60;;
679;SDS011;322;48.846;9.230;2022-09-09T02:42:38;4.93;;;2.93;;
679;SDS011;322;48.846;9.230;2022-09-09T02:45:06;6.43;;;2.50;;
679;SDS011;322;48.846;9.230;2022-09-09T02:47:36;4.77;;;2.50;;
679;SDS011;322;48.846;9.230;2022-09-09T02:50:11;4.83;;;3.10;;
679;SDS011;322;48.846;9.230;2022-09-09T02:52:44;4.00;;;2.33;;
679;SDS011;322;48.846;9.230;2022-09-09T02:55:24;5.27;;;2.97;;
679;SDS011;322;48.846;9.230;2022-09-09T02:58:01;2.40;;;2.07;;
679;SDS011;322;48.846;9.230;2022-09-09T03:00:31;2.73;;;2.20;;
679;SDS011;322;48.846;9.230;2022-09-09T03:02:59;3.80;;;2.90;;
679;SDS011;322;48.846;9.230;2022-09-09T03:05:26;6.03;;;2.73;;
679;SDS011;322;48.846;9.230;2022-09-09T03:07:53;5.40;;;2.70;;
679;SDS011;322;48.846;9.230;2022-09-09T03:10:19;5.30;;;2.63;;
679;SDS011;322;48.846;9.230;2022-09-09T03:12:46;3.73;;;2.93;;
679;SDS011;322;48.846;9.230;2022-09-09T03:15:13;5.03;;;2.70;;
679;SDS011;322;48.846;9.230;2022-09-09T03:17:40;3.57;;;2.27;;
679;SDS011;322;48.846;9.230;2022-09-09T03:20:09;2.73;;;2.40;;
679;SDS011;322;48.846;9.230;2022-09-09T03:22:36;3.20;;;2.63;;
679;SDS011;322;48.846;9.230;2022-09-09T03:25:02;3.70;;;2.30;;
679;SDS011;322;48.846;9.230;2022-09-09T03:27:30;3.10;;;2.33;;
679;SDS011;322;48.846;9.230;2022-09-09T03:29:57;4.10;;;2.40;;
679;SDS011;322;48.846;9.230;2022-09-09T03:32:24;3.80;;;2.23;;
679;SDS011;322;48.846;9.230;2022-09-09T03:34:52;3.27;;;2.30;;
679;SDS011;322;48.846;9.230;2022-09-09T03:37:20;4.60;;;2.73;;
679;SDS011;322;48.846;9.230;2022-09-09T03:39:47;4.73;;;2.27;;
679;SDS011;322;48.846;9.230;2022-09-09T03:42:15;8.30;;;2.23;;
679;SDS011;322;48.846;9.230;2022-09-09T03:44:44;4.23;;;3.00;;
679;SDS011;322;48.846;9.230;2022-09-09T03:47:15;4.87;;;2.47;;
679;SDS011;322;48.846;9.230;2022-09-09T03:49:43;4.73;;;2.50;;
679;SDS011;322;48.846;9.230;2022-09-09T03:52:10;4.30;;;2.17;;
679;SDS011;322;48.846;9.230;2022-09-09T03:54:38;5.17;;;2.40;;
679;SDS011;322;48.846;9.230;2022-09-09T03:57:07;4.27;;;2.07;;
679;SDS011;322;48.846;9.230;2022-09-09T03:59:35;3.87;;;2.30;;
679;SDS011;322;48.846;9.230;2022-09-09T04:02:02;2.70;;;1.73;;
679;SDS011;322;48.846;9.230;2022-09-09T04:04:29;3.50;;;1.90;;
679;SDS011;322;48.846;9.230;2022-09-09T04:06:56;3.33;;;2.30;;
679;SDS011;322;48.846;9.230;2022-09-09T04:09:22;3.90;;;2.53;;
679;SDS011;322;48.846;9.230;2022-09-09T04:11:51;6.83;;;2.83;;
679;SDS011;322;48.846;9.230;2022-09-09T04:14:18;5.47;;;2.50;;
679;SDS011;322;48.846;9.230;2022-09-09T04:16:45;3.43;;;2.00;;
679;SDS011;322;48.846;9.230;2022-09-09T04:19:12;2.57;;;2.07;;
679;SDS011;322;48.846;9.230;2022-09-09T04:21:39;5.07;;;2.63;;
679;SDS011;322;48.846;9.230;2022-09-09T04:24:06;3.10;;;1.90;;
679;SDS011;322;48.846;9.230;2022-09-09T04:26:34;2.23;;;2.00;;
679;SDS011;322;48.846;9.230;2022-09-09T04:29:03;4.10;;;2.07;;
679;SDS011;322;48.846;9.230;2022-09-09T04:31:32;2.77;;;2.20;;
679;SDS011;322;48.846;9.230;2022-09-09T04:33:58;3.10;;;2.17;;
679;SDS011;322;48.846;9.230;2022-09-09T04:36:29;1.93;;;1.70;;
679;SDS011;322;48.846;9.230;2022-09-09T04:38:57;2.40;;;2.00;;
679;SDS011;322;48.846;9.230;2022-09-09T04:41:23;3.07;;;2.23;;
679;SDS011;322;48.846;9.230;2022-09-09T04:43:50;5.07;;;2.10;;
679;SDS011;322;48.846;9.230;2022-09-09T04:46:19;4.87;;;1.90;;
679;SDS011;322;48.846;9.230;2022-09-09T04:48:48;2.50;;;2.23;;
679;SDS011;322;48.846;9.230;2022-09-09T04:51:15;4.63;;;2.03;;
679;SDS011;322;48.846;9.230;2022-09-09T04:53:42;2.93;;;1.87;;
679;SDS011;322;48.846;9.230;2022-09-09T04:56:09;5.20;;;2.03;;
679;SDS011;322;48.846;9.230;2022-09-09T04:58:37;4.63;;;2.07;;
679;SDS011;322;48.846;9.230;2022-09-09T05:01:05;3.63;;;2.17;;
679;SDS011;322;48.846;9.230;2022-09-09T05:03:34;4.07;;;2.00;;
679;SDS011;322;48.846;9.230;2022-09-09T05:06:05;4.43;;;2.60;;
679;SDS011;322;48.846;9.230;2022-09-09T05:08:33;1.93;;;1.70;;
679;SDS011;322;48.846;9.230;2022-09-09T05:11:00;3.60;;;2.00;;
679;SDS011;322;48.846;9.230;2022-09-09T05:13:27;2.90;;;2.33;;
679;SDS011;322;48.846;9.230;2022-09-09T05:15:54;3.93;;;1.80;;
679;SDS011;322;48.846;9.230;2022-09-09T05:18:21;3.90;;;2.23;;
679;SDS011;322;48.846;9.230;2022-09-09T05:20:49;4.20;;;2.30;;
679;SDS011;322;48.846;9.230;2022-09-09T05:23:17;3.97;;;2.10;;
679;SDS011;322;48.846;9.230;2022-09-09T05:25:43;4.13;;;2.17;;
679;SDS011;322;48.846;9.230;2022-09-09T05:28:22;4.03;;;2.23;;
679;SDS011;322;48.846;9.230;2022-09-09T05:30:54;2.10;;;1.77;;
679;SDS011;322;48.846;9.230;2022-09-09T05:33:25;3.37;;;2.30;;
679;SDS011;322;48.846;9.230;2022-09-09T05:35:57;5.40;;;2.10;;
679;SDS011;322;48.846;9.230;2022-09-09T05:38:25;3.80;;;1.77;;
679;SDS011;322;48.846;9.230;2022-09-09T05:40:52;3.93;;;2.40;;
679;SDS011;322;48.846;9.230;2022-09-09T05:43:19;4.23;;;2.07;;
679;SDS011;322;48.846;9.230;2022-09-09T05:45:46;5.70;;;2.07;;
679;SDS011;322;48.846;9.230;2022-09-09T05:48:13;4.83;;;2.40;;
679;SDS011;322;48.846;9.230;2022-09-09T05:50:41;5.10;;;2.00;;
679;SDS011;322;48.846;9.230;2022-09-09T05:53:09;3.00;;;2.20;;
679;SDS011;322;48.846;9.230;2022-09-09T05:55:36;4.93;;;1.97;;
679;SDS011;322;48.846;9.230;2022-09-09T05:58:02;5.40;;;2.23;;
679;SDS011;322;48.846;9.230;2022-09-09T06:00:29;4.90;;;2.10;;
679;SDS011;322;48.846;9.230;2022-09-09T06:02:57;2.57;;;2.03;;
679;SDS011;322;48.846;9.230;2022-09-09T06:05:23;5.20;;;2.10;;
679;SDS011;322;48.846;9.230;2022-09-09T06:07:52;11.07;;;2.60;;
679;SDS011;322;48.846;9.230;2022-09-09T06:10:21;2.37;;;2.13;;
679;SDS011;322;48.846;9.230;2022-09-09T06:12:48;3.27;;;1.87;;
679;SDS011;322;48.846;9.230;2022-09-09T06:15:15;3.00;;;2.07;;
679;SDS011;322;48.846;9.230;2022-09-09T06:17:42;5.80;;;2.30;;
679;SDS011;322;48.846;9.230;2022-09-09T06:20:10;3.00;;;2.03;;
679;SDS011;322;48.846;9.230;2022-09-09T06:22:38;9.00;;;3.00;;
679;SDS011;322;48.846;9.230;2022-09-09T06:25:06;4.63;;;2.50;;
679;SDS011;322;48.846;9.230;2022-09-09T06:27:35;7.30;;;2.10;;
679;SDS011;322;48.846;9.230;2022-09-09T06:30:02;3.93;;;2.23;;
679;SDS011;322;48.846;9.230;2022-09-09T06:32:29;4.90;;;1.80;;
679;SDS011;322;48.846;9.230;2022-09-09T06:34:59;4.73;;;1.70;;
679;SDS011;322;48.846;9.230;2022-09-09T06:37:27;4.97;;;2.47;;
679;SDS011;322;48.846;9.230;2022-09-09T06:39:54;2.00;;;1.80;;
679;SDS011;322;48.846;9.230;2022-09-09T06:42:21;5.80;;;2.40;;
679;SDS011;322;48.846;9.230;2022-09-09T06:44:49;4.33;;;2.40;;
679;SDS011;322;48.846;9.230;2022-09-09T06:47:17;2.10;;;1.90;;
679;SDS011;322;48.846;9.230;2022-09-09T06:49:44;4.10;;;1.90;;
679;SDS011;322;48.846;9.230;2022-09-09T06:52:10;4.10;;;1.87;;
679;SDS011;322;48.846;9.230;2022-09-09T06:54:37;2.93;;;2.30;;
679;SDS011;322;48.846;9.230;2022-09-09T06:57:04;3.33;;;2.00;;
679;SDS011;322;48.846;9.230;2022-09-09T06:59:32;3.57;;;1.87;;
679;SDS011;322;48.846;9.230;2022-09-09T07:02:00;3.33;;;1.73;;
679;SDS011;322;48.846;9.230;2022-09-09T07:04:27;4.03;;;2.00;;
679;SDS011;322;48.846;9.230;2022-09-09T07:06:54;3.33;;;2.23;;
679;SDS011;322;48.846;9.230;2022-09-09T07:09:20;4.30;;;2.40;;
679;SDS011;322;48.846;9.230;2022-09-09T07:11:49;3.10;;;2.00;;
679;SDS011;322;48.846;9.230;2022-09-09T07:14:17;5.10;;;2.37;;
679;SDS011;322;48.846;9.230;2022-09-09T07:16:45;3.20;;;1.77;;
679;SDS011;322;48.846;9.230;2022-09-09T07:19:14;4.20;;;2.00;;
679;SDS011;322;48.846;9.230;2022-09-09T07:21:41;5.63;;;2.23;;
679;SDS011;322;48.846;9.230;2022-09-09T07:24:08;5.33;;;2.40;;
679;SDS011;322;48.846;9.230;2022-09-09T07:26:36;3.90;;;1.80;;
679;SDS011;322;48.846;9.230;2022-09-09T07:29:03;2.23;;;1.70;;
679;SDS011;322;48.846;9.230;2022-09-09T07:31:31;3.83;;;2.00;;
679;SDS011;322;48.846;9.230;2022-09-09T07:33:59;2.23;;;1.63;;
679;SDS011;322;48.846;9.230;2022-09-09T07:36:29;3.13;;;1.73;;
679;SDS011;322;48.846;9.230;2022-09-09T07:38:57;2.13;;;1.70;;
679;SDS011;322;48.846;9.230;2022-09-09T07:41:27;4.10;;;2.10;;
679;SDS011;322;48.846;9.230;2022-09-09T07:43:55;9.23;;;2.73;;
679;SDS011;322;48.846;9.230;2022-09-09T07:46:24;4.23;;;2.53;;
679;SDS011;322;48.846;9.230;2022-09-09T07:48:52;3.60;;;1.80;;
679;SDS011;322;48.846;9.230;2022-09-09T07:51:22;3.57;;;2.07;;
679;SDS011;322;48.846;9.230;2022-09-09T07:53:53;5.70;;;1.83;;
679;SDS011;322;48.846;9.230;2022-09-09T07:56:22;4.53;;;2.07;;
679;SDS011;322;48.846;9.230;2022-09-09T07:58:50;2.03;;;1.50;;
679;SDS011;322;48.846;9.230;2022-09-09T08:01:19;3.17;;;1.83;;
679;SDS011;322;48.846;9.230;2022-09-09T08:03:51;2.33;;;1.63;;
679;SDS011;322;48.846;9.230;2022-09-09T08:06:19;5.10;;;2.80;;
679;SDS011;322;48.846;9.230;2022-09-09T08:08:49;4.57;;;1.73;;
679;SDS011;322;48.846;9.230;2022-09-09T08:11:17;5.07;;;1.63;;
679;SDS011;322;48.846;9.230;2022-09-09T08:13:44;4.60;;;2.07;;
679;SDS011;322;48.846;9.230;2022-09-09T08:16:13;3.43;;;2.40;;
679;SDS011;322;48.846;9.230;2022-09-09T08:18:41;3.43;;;1.87;;
679;SDS011;322;48.846;9.230;2022-09-09T08:21:10;3.50;;;2.00;;
679;SDS011;322;48.846;9.230;2022-09-09T08:23:38;4.73;;;1.53;;
679;SDS011;322;48.846;9.230;2022-09-09T08:26:06;3.80;;;1.43;;
679;SDS011;322;48.846;9.230;2022-09-09T08:28:37;3.00;;;1.70;;
679;SDS011;322;48.846;9.230;2022-09-09T08:31:05;2.77;;;1.70;;
679;SDS011;322;48.846;9.230;2022-09-09T08:33:36;3.50;;;2.00;;
679;SDS011;322;48.846;9.230;2022-09-09T08:36:04;3.30;;;1.47;;
679;SDS011;322;48.846;9.230;2022-09-09T08:38:32;3.40;;;1.90;;
679;SDS011;322;48.846;9.230;2022-09-09T08:41:03;3.93;;;1.50;;
679;SDS011;322;48.846;9.230;2022-09-09T08:43:39;2.00;;;1.13;;
679;SDS011;322;48.846;9.230;2022-09-09T08:46:09;3.83;;;1.80;;
679;SDS011;322;48.846;9.230;2022-09-09T08:48:48;5.57;;;1.70;;
679;SDS011;322;48.846;9.230;2022-09-09T08:51:20;2.20;;;1.50;;
679;SDS011;322;48.846;9.230;2022-09-09T08:53:48;5.67;;;2.00;;
679;SDS011;322;48.846;9.230;2022-09-09T08:56:17;4.13;;;1.97;;
679;SDS011;322;48.846;9.230;2022-09-09T08:58:49;4.60;;;1.70;;
679;SDS011;322;48.846;9.230;2022-09-09T09:01:22;3.53;;;1.50;;
679;SDS011;322;48.846;9.230;2022-09-09T09:04:06;3.20;;;1.60;;
679;SDS011;322;48.846;9.230;2022-09-09T09:06:55;2.03;;;1.40;;
679;SDS011;322;48.846;9.230;2022-09-09T09:09:30;1.43;;;0.90;;
679;SDS011;322;48.846;9.230;2022-09-09T09:12:08;4.40;;;1.17;;
679;SDS011;322;48.846;9.230;2022-09-09T09:14:43;3.63;;;1.30;;
679;SDS011;322;48.846;9.230;2022-09-09T09:17:12;3.07;;;1.50;;
679;SDS011;322;48.846;9.230;2022-09-09T09:19:41;3.23;;;1.20;;
679;SDS011;322;48.846;9.230;2022-09-09T09:22:14;7.27;;;1.50;;
679;SDS011;322;48.846;9.230;2022-09-09T09:24:45;4.20;;;1.17;;
679;SDS011;322;48.846;9.230;2022-09-09T09:27:30;7.10;;;1.53;;
679;SDS011;322;48.846;9.230;2022-09-09T09:30:00;3.67;;;1.47;;
679;SDS011;322;48.846;9.230;2022-09-09T09:32:38;1.93;;;1.10;;
679;SDS011;322;48.846;9.230;2022-09-09T09:35:11;2.90;;;1.20;;
679;SDS011;322;48.846;9.230;2022-09-09T09:37:40;4.57;;;1.50;;
679;SDS011;322;48.846;9.230;2022-09-09T09:40:09;2.37;;;1.10;;
679;SDS011;322;48.846;9.230;2022-09-09T09:42:37;4.40;;;1.40;;
679;SDS011;322;48.846;9.230;2022-09-09T09:45:16;2.93;;;1.17;;
679;SDS011;322;48.846;9.230;2022-09-09T09:47:46;2.60;;;1.47;;
679;SDS011;322;48.846;9.230;2022-09-09T09:50:24;10.00;;;1.60;;
679;SDS011;322;48.846;9.230;2022-09-09T09:52:54;3.53;;;1.37;;
679;SDS011;322;48.846;9.230;2022-09-09T09:55:22;3.63;;;1.00;;
679;SDS011;322;48.846;9.230;2022-09-09T09:57:50;5.80;;;1.00;;
679;SDS011;322;48.846;9.230;2022-09-09T10:00:20;1.87;;;1.10;;
679;SDS011;322;48.846;9.230;2022-09-09T10:02:48;1.97;;;1.00;;
679;SDS011;322;48.846;9.230;2022-09-09T10:05:18;3.00;;;1.10;;
679;SDS011;322;48.846;9.230;2022-09-09T10:07:46;3.73;;;1.07;;
679;SDS011;322;48.846;9.230;2022-09-09T10:10:26;2.20;;;0.97;;
679;SDS011;322;48.846;9.230;2022-09-09T10:13:01;3.30;;;1.03;;
679;SDS011;322;48.846;9.230;2022-09-09T10:15:41;2.77;;;0.80;;
679;SDS011;322;48.846;9.230;2022-09-09T10:18:21;2.40;;;1.10;;
679;SDS011;322;48.846;9.230;2022-09-09T10:21:02;1.90;;;0.80;;
679;SDS011;322;48.846;9.230;2022-09-09T10:23:42;2.93;;;1.13;;
679;SDS011;322;48.846;9.230;2022-09-09T10:26:26;5.00;;;1.30;;
679;SDS011;322;48.846;9.230;2022-09-09T10:29:04;2.97;;;0.90;;
679;SDS011;322;48.846;9.230;2022-09-09T10:31:46;2.03;;;1.00;;
679;SDS011;322;48.846;9.230;2022-09-09T10:34:33;1.60;;;0.90;;
679;SDS011;322;48.846;9.230;2022-09-09T10:37:15;3.60;;;1.20;;
679;SDS011;322;48.846;9.230;2022-09-09T10:39:48;3.47;;;1.00;;
679;SDS011;322;48.846;9.230;2022-09-09T10:42:23;4.53;;;1.30;;
679;SDS011;322;48.846;9.230;2022-09-09T10:44:58;1.20;;;1.10;;
679;SDS011;322;48.846;9.230;2022-09-09T10:47:39;3.20;;;1.40;;
679;SDS011;322;48.846;9.230;2022-09-09T10:53:20;4.23;;;1.30;;
679;SDS011;322;48.846;9.230;2022-09-09T10:55:56;3.00;;;1.30;;
679;SDS011;322;48.846;9.230;2022-09-09T10:58:29;2.83;;;1.37;;
679;SDS011;322;48.846;9.230;2022-09-09T11:01:06;2.43;;;1.10;;
679;SDS011;322;48.846;9.230;2022-09-09T11:03:40;4.83;;;1.60;;
679;SDS011;322;48.846;9.230;2022-09-09T11:06:09;2.83;;;1.20;;
679;SDS011;322;48.846;9.230;2022-09-09T11:08:40;2.23;;;1.30;;
679;SDS011;322;48.846;9.230;2022-09-09T11:11:09;3.83;;;1.60;;
679;SDS011;322;48.846;9.230;2022-09-09T11:13:44;2.90;;;1.10;;
679;SDS011;322;48.846;9.230;2022-09-09T11:16:19;2.80;;;1.50;;
679;SDS011;322;48.846;9.230;2022-09-09T11:21:26;3.20;;;1.13;;
679;SDS011;322;48.846;9.230;2022-09-09T11:23:57;5.73;;;1.40;;
679;SDS011;322;48.846;9.230;2022-09-09T11:26:29;4.70;;;2.23;;
679;SDS011;322;48.846;9.230;2022-09-09T11:29:17;5.57;;;2.20;;
679;SDS011;322;48.846;9.230;2022-09-09T11:32:02;5.37;;;1.40;;
679;SDS011;322;48.846;9.230;2022-09-09T11:34:42;7.60;;;1.87;;
679;SDS011;322;48.846;9.230;2022-09-09T11:37:32;4.33;;;1.90;;
679;SDS011;322;48.846;9.230;2022-09-09T11:40:17;6.57;;;2.53;;
679;SDS011;322;48.846;9.230;2022-09-09T11:42:48;4.70;;;1.70;;
679;SDS011;322;48.846;9.230;2022-09-09T11:45:26;3.23;;;1.27;;
679;SDS011;322;48.846;9.230;2022-09-09T11:47:55;3.50;;;1.23;;
679;SDS011;322;48.846;9.230;2022-09-09T11:50:32;2.80;;;1.37;;
679;SDS011;322;48.846;9.230;2022-09-09T11:53:18;3.27;;;1.10;;
679;SDS011;322;48.846;9.230;2022-09-09T11:55:47;4.10;;;1.30;;
679;SDS011;322;48.846;9.230;2022-09-09T11:58:25;2.43;;;1.00;;
679;SDS011;322;48.846;9.230;2022-09-09T12:00:57;1.40;;;1.00;;
679;SDS011;322;48.846;9.230;2022-09-09T12:03:39;2.80;;;1.10;;
679;SDS011;322;48.846;9.230;2022-09-09T12:06:11;1.57;;;0.80;;
679;SDS011;322;48.846;9.230;2022-09-09T12:08:42;1.30;;;0.80;;
679;SDS011;322;48.846;9.230;2022-09-09T12:11:11;1.10;;;0.60;;
679;SDS011;322;48.846;9.230;2022-09-09T12:13:51;1.73;;;0.70;;
679;SDS011;322;48.846;9.230;2022-09-09T12:16:27;3.60;;;0.90;;
679;SDS011;322;48.846;9.230;2022-09-09T12:19:04;2.03;;;0.70;;
679;SDS011;322;48.846;9.230;2022-09-09T12:21:36;2.87;;;0.67;;
679;SDS011;322;48.846;9.230;2022-09-09T12:24:09;1.50;;;0.70;;
679;SDS011;322;48.846;9.230;2022-09-09T12:26:37;0.90;;;0.60;;
679;SDS011;322;48.846;9.230;2022-09-09T12:29:13;1.10;;;0.60;;
679;SDS011;322;48.846;9.230;2022-09-09T12:31:50;1.70;;;1.00;;
679;SDS011;322;48.846;9.230;2022-09-09T12:34:25;1.20;;;0.60;;
679;SDS011;322;48.846;9.230;2022-09-09T12:37:02;1.00;;;0.50;;
679;SDS011;322;48.846;9.230;2022-09-09T12:39:33;2.60;;;0.70;;
679;SDS011;322;48.846;9.230;2022-09-09T12:42:03;1.50;;;0.70;;
679;SDS011;322;48.846;9.230;2022-09-09T12:44:30;2.80;;;0.60;;
679;SDS011;322;48.846;9.230;2022-09-09T12:46:58;2.03;;;0.90;;
679;SDS011;322;48.846;9.230;2022-09-09T12:49:28;1.30;;;0.80;;
679;SDS011;322;48.846;9.230;2022-09-09T12:52:00;1.90;;;0.80;;
679;SDS011;322;48.846;9.230;2022-09-09T12:54:28;3.00;;;1.30;;
679;SDS011;322;48.846;9.230;2022-09-09T12:56:55;2.33;;;0.80;;
679;SDS011;322;48.846;9.230;2022-09-09T12:59:23;1.83;;;0.63;;
679;SDS011;322;48.846;9.230;2022-09-09T13:01:57;3.87;;;0.70;;
679;SDS011;322;48.846;9.230;2022-09-09T13:04:24;1.17;;;0.70;;
679;SDS011;322;48.846;9.230;2022-09-09T13:06:51;5.50;;;0.70;;
679;SDS011;322;48.846;9.230;2022-09-09T13:09:19;1.60;;;0.67;;
679;SDS011;322;48.846;9.230;2022-09-09T13:11:47;1.00;;;0.70;;
679;SDS011;322;48.846;9.230;2022-09-09T13:14:17;2.30;;;0.80;;
679;SDS011;322;48.846;9.230;2022-09-09T13:16:54;1.90;;;0.70;;
679;SDS011;322;48.846;9.230;2022-09-09T13:19:23;1.53;;;0.63;;
679;SDS011;322;48.846;9.230;2022-09-09T13:21:52;2.47;;;0.77;;
679;SDS011;322;48.846;9.230;2022-09-09T13:24:26;1.97;;;1.30;;
679;SDS011;322;48.846;9.230;2022-09-09T13:26:55;1.90;;;1.10;;
679;SDS011;322;48.846;9.230;2022-09-09T13:29:23;2.73;;;0.70;;
679;SDS011;322;48.846;9.230;2022-09-09T13:31:50;1.83;;;0.80;;
679;SDS011;322;48.846;9.230;2022-09-09T13:34:28;1.10;;;0.70;;
679;SDS011;322;48.846;9.230;2022-09-09T13:36:58;1.43;;;0.60;;
679;SDS011;322;48.846;9.230;2022-09-09T13:39:29;2.40;;;0.80;;
679;SDS011;322;48.846;9.230;2022-09-09T13:41:56;4.43;;;0.87;;
679;SDS011;322;48.846;9.230;2022-09-09T13:44:24;1.90;;;0.77;;
679;SDS011;322;48.846;9.230;2022-09-09T13:46:59;3.53;;;0.90;;
679;SDS011;322;48.846;9.230;2022-09-09T13:49:28;1.70;;;0.70;;
679;SDS011;322;48.846;9.230;2022-09-09T13:54:46;1.90;;;1.07;;
679;SDS011;322;48.846;9.230;2022-09-09T13:57:15;1.87;;;0.60;;
679;SDS011;322;48.846;9.230;2022-09-09T13:59:43;1.80;;;0.67;;
679;SDS011;322;48.846;9.230;2022-09-09T14:02:10;1.60;;;0.90;;
679;SDS011;322;48.846;9.230;2022-09-09T14:04:37;2.27;;;1.10;;
679;SDS011;322;48.846;9.230;2022-09-09T14:07:07;3.27;;;0.97;;
679;SDS011;322;48.846;9.230;2022-09-09T14:09:37;2.50;;;0.90;;
679;SDS011;322;48.846;9.230;2022-09-09T14:12:05;5.60;;;1.30;;
679;SDS011;322;48.846;9.230;2022-09-09T14:14:34;2.80;;;1.13;;
679;SDS011;322;48.846;9.230;2022-09-09T14:17:01;1.50;;;0.70;;
679;SDS011;322;48.846;9.230;2022-09-09T14:19:28;1.90;;;1.00;;
679;SDS011;322;48.846;9.230;2022-09-09T14:21:55;1.30;;;0.77;;
679;SDS011;322;48.846;9.230;2022-09-09T14:24:22;2.10;;;0.90;;
679;SDS011;322;48.846;9.230;2022-09-09T14:26:50;1.50;;;0.80;;
679;SDS011;322;48.846;9.230;2022-09-09T14:29:18;1.20;;;0.60;;
679;SDS011;322;48.846;9.230;2022-09-09T14:31:45;1.43;;;0.60;;
679;SDS011;322;48.846;9.230;2022-09-09T14:34:12;3.53;;;1.20;;
679;SDS011;322;48.846;9.230;2022-09-09T14:36:39;1.80;;;0.93;;
679;SDS011;322;48.846;9.230;2022-09-09T14:39:06;1.53;;;0.70;;
679;SDS011;322;48.846;9.230;2022-09-09T14:41:33;1.57;;;0.60;;
679;SDS011;322;48.846;9.230;2022-09-09T14:44:00;2.60;;;0.63;;
679;SDS011;322;48.846;9.230;2022-09-09T14:46:28;1.30;;;0.70;;
679;SDS011;322;48.846;9.230;2022-09-09T14:48:56;2.90;;;0.97;;
679;SDS011;322;48.846;9.230;2022-09-09T14:51:23;2.33;;;0.73;;
679;SDS011;322;48.846;9.230;2022-09-09T14:53:52;2.27;;;0.97;;
679;SDS011;322;48.846;9.230;2022-09-09T14:56:21;2.07;;;0.90;;
679;SDS011;322;48.846;9.230;2022-09-09T14:58:50;2.07;;;0.80;;
679;SDS011;322;48.846;9.230;2022-09-09T15:01:19;2.10;;;0.80;;
679;SDS011;322;48.846;9.230;2022-09-09T15:03:50;3.07;;;1.00;;
679;SDS011;322;48.846;9.230;2022-09-09T15:06:19;2.03;;;0.70;;
679;SDS011;322;48.846;9.230;2022-09-09T15:08:47;1.47;;;0.70;;
679;SDS011;322;48.846;9.230;2022-09-09T15:11:17;2.30;;;0.70;;
679;SDS011;322;48.846;9.230;2022-09-09T15:13:45;3.63;;;0.80;;
679;SDS011;322;48.846;9.230;2022-09-09T15:16:14;1.30;;;0.60;;
679;SDS011;322;48.846;9.230;2022-09-09T15:18:42;1.90;;;0.70;;
679;SDS011;322;48.846;9.230;2022-09-09T15:21:11;1.50;;;0.70;;
679;SDS011;322;48.846;9.230;2022-09-09T15:23:40;1.53;;;0.70;;
679;SDS011;322;48.846;9.230;2022-09-09T15:26:07;1.57;;;0.70;;
679;SDS011;322;48.846;9.230;2022-09-09T15:28:35;2.07;;;1.30;;
679;SDS011;322;48.846;9.230;2022-09-09T15:31:04;2.07;;;1.07;;
679;SDS011;322;48.846;9.230;2022-09-09T15:33:33;1.23;;;0.70;;
679;SDS011;322;48.846;9.230;2022-09-09T15:36:11;1.43;;;0.60;;
679;SDS011;322;48.846;9.230;2022-09-09T15:38:40;1.90;;;1.13;;
679;SDS011;322;48.846;9.230;2022-09-09T15:41:08;0.90;;;0.57;;
679;SDS011;322;48.846;9.230;2022-09-09T15:43:36;1.37;;;0.73;;
679;SDS011;322;48.846;9.230;2022-09-09T15:46:05;2.33;;;0.80;;
679;SDS011;322;48.846;9.230;2022-09-09T15:48:49;2.90;;;0.70;;
679;SDS011;322;48.846;9.230;2022-09-09T15:51:17;2.00;;;0.70;;
679;SDS011;322;48.846;9.230;2022-09-09T15:53:44;2.00;;;0.90;;
679;SDS011;322;48.846;9.230;2022-09-09T15:56:11;1.00;;;0.63;;
679;SDS011;322;48.846;9.230;2022-09-09T15:58:38;2.07;;;1.10;;
679;SDS011;322;48.846;9.230;2022-09-09T16:01:05;1.27;;;0.80;;
679;SDS011;322;48.846;9.230;2022-09-09T16:03:34;0.90;;;0.60;;
679;SDS011;322;48.846;9.230;2022-09-09T16:06:01;1.07;;;0.70;;
679;SDS011;322;48.846;9.230;2022-09-09T16:08:32;1.73;;;0.77;;
679;SDS011;322;48.846;9.230;2022-09-09T16:11:04;1.10;;;0.70;;
679;SDS011;322;48.846;9.230;2022-09-09T16:13:32;2.33;;;0.90;;
679;SDS011;322;48.846;9.230;2022-09-09T16:16:00;2.10;;;0.70;;
679;SDS011;322;48.846;9.230;2022-09-09T16:18:32;4.23;;;1.40;;